createdAt,value
2019-01-22T00:00:21.650Z,8.95
2019-01-22T00:02:50.702Z,7.90
2019-01-22T00:05:20.792Z,8.23
2019-01-22T00:07:49.465Z,10.40
2019-01-22T00:10:19.006Z,9.90
2019-01-22T00:12:48.745Z,9.13
2019-01-22T00:15:18.142Z,10.80
2019-01-22T00:17:48.314Z,9.13
2019-01-22T00:20:17.175Z,9.40
2019-01-22T00:22:45.995Z,12.23
2019-01-22T00:25:15.214Z,11.03
2019-01-22T00:27:43.976Z,10.35
2019-01-22T00:30:18.714Z,9.45
2019-01-22T00:32:47.946Z,13.50
2019-01-22T00:35:16.772Z,12.20
2019-01-22T00:37:47.356Z,33.53
2019-01-22T00:40:19.373Z,30.50
2019-01-22T00:42:49.192Z,22.35
2019-01-22T00:45:18.166Z,23.38
2019-01-22T00:47:47.382Z,23.52
2019-01-22T00:50:18.119Z,18.82
2019-01-22T00:52:47.437Z,15.95
2019-01-22T00:55:19.124Z,12.70
2019-01-22T00:57:48.367Z,12.10
2019-01-22T01:00:28.849Z,10.88
2019-01-22T01:02:57.607Z,11.28
2019-01-22T01:05:26.862Z,12.13
2019-01-22T01:07:55.738Z,11.95
2019-01-22T01:10:24.607Z,12.68
2019-01-22T01:12:53.226Z,12.82
2019-01-22T01:15:22.110Z,13.60
2019-01-22T01:17:50.738Z,9.73
2019-01-22T01:20:21.187Z,11.85
2019-01-22T01:22:49.867Z,8.85
2019-01-22T01:25:20.518Z,10.65
2019-01-22T01:27:49.544Z,11.57
2019-01-22T01:30:22.873Z,10.70
2019-01-22T01:32:52.584Z,11.60
2019-01-22T01:35:22.068Z,13.53
2019-01-22T01:37:51.188Z,12.40
2019-01-22T01:40:20.377Z,9.40
2019-01-22T01:42:49.535Z,10.95
2019-01-22T01:45:18.594Z,10.55
2019-01-22T01:47:47.607Z,12.00
2019-01-22T01:50:17.548Z,11.40
2019-01-22T01:52:46.439Z,10.30
2019-01-22T01:55:17.285Z,10.32
2019-01-22T01:57:46.171Z,9.20
2019-01-22T02:00:19.682Z,9.65
2019-01-22T02:02:49.428Z,9.50
2019-01-22T02:05:19.508Z,9.05
2019-01-22T02:07:48.510Z,11.10
2019-01-22T02:10:19.465Z,11.43
2019-01-22T02:13:00.627Z,10.60
2019-01-22T02:15:32.731Z,9.70
2019-01-22T02:18:27.954Z,9.35
2019-01-22T02:21:03.203Z,10.55
2019-01-22T02:23:50.643Z,10.45
2019-01-22T02:26:41.125Z,10.00
2019-01-22T02:29:21.839Z,10.15
2019-01-22T02:32:16.789Z,10.38
2019-01-22T02:34:54.612Z,10.25
2019-01-22T02:37:50.544Z,11.63
2019-01-22T02:40:28.293Z,11.60
2019-01-22T02:43:14.817Z,13.45
2019-01-22T02:46:07.772Z,11.65
2019-01-22T02:48:43.942Z,11.35
2019-01-22T02:51:24.555Z,10.10
2019-01-22T02:53:59.445Z,13.38
2019-01-22T02:56:55.217Z,14.58
2019-01-22T02:59:39.343Z,14.20
2019-01-22T03:02:32.849Z,14.33
2019-01-22T03:05:17.037Z,13.72
2019-01-22T03:08:01.081Z,18.90
2019-01-22T03:10:34.637Z,18.62
2019-01-22T03:13:13.201Z,15.00
2019-01-22T03:16:07.691Z,17.45
2019-01-22T03:18:51.327Z,17.00
2019-01-22T03:21:25.973Z,12.80
2019-01-22T03:24:27.986Z,14.55
2019-01-22T03:27:14.568Z,13.40
2019-01-22T03:30:02.845Z,17.60
2019-01-22T03:32:43.680Z,16.50
2019-01-22T03:35:27.299Z,16.23
2019-01-22T03:38:01.976Z,17.20
2019-01-22T03:40:34.047Z,19.52
2019-01-22T03:43:10.497Z,17.90
2019-01-22T03:45:45.308Z,20.80
2019-01-22T03:48:34.308Z,19.60
2019-01-22T03:51:09.085Z,18.62
2019-01-22T03:53:44.758Z,21.68
2019-01-22T03:56:34.779Z,19.60
2019-01-22T03:59:03.402Z,20.37
2019-01-22T04:01:32.142Z,17.37
2019-01-22T04:04:01.091Z,18.37
2019-01-22T04:06:29.677Z,17.57
2019-01-22T04:09:01.234Z,15.83
2019-01-22T04:11:30.900Z,16.93
2019-01-22T04:13:59.538Z,17.00
2019-01-22T04:16:29.296Z,20.08
2019-01-22T04:18:58.588Z,31.68
2019-01-22T04:21:30.652Z,35.25
2019-01-22T04:24:08.918Z,41.00
2019-01-22T04:26:41.207Z,37.33
2019-01-22T04:29:17.385Z,58.68
2019-01-22T04:31:55.865Z,39.95
2019-01-22T04:34:31.304Z,24.82
2019-01-22T04:37:06.410Z,25.95
2019-01-22T04:39:50.050Z,20.45
2019-01-22T04:42:36.566Z,22.02
2019-01-22T04:45:08.341Z,25.32
2019-01-22T04:47:45.874Z,23.45
2019-01-22T04:50:28.143Z,30.17
2019-01-22T04:53:02.557Z,36.30
2019-01-22T04:55:43.115Z,40.28
2019-01-22T04:58:14.890Z,24.45
2019-01-22T05:00:49.628Z,29.32
2019-01-22T05:03:25.061Z,36.40
2019-01-22T05:05:59.984Z,29.55
2019-01-22T05:08:47.507Z,39.05
2019-01-22T05:11:22.314Z,54.05
2019-01-22T05:13:57.348Z,46.42
2019-01-22T05:16:32.123Z,35.35
2019-01-22T05:19:04.154Z,34.70
2019-01-22T05:21:42.281Z,37.48
2019-01-22T05:24:35.401Z,35.40
2019-01-22T05:27:16.687Z,83.20
2019-01-22T05:30:00.383Z,80.40
2019-01-22T05:32:53.722Z,68.97
2019-01-22T05:35:44.876Z,46.42
2019-01-22T05:38:25.752Z,50.03
2019-01-22T05:41:07.164Z,30.62
2019-01-22T05:43:44.982Z,36.00
2019-01-22T05:46:37.911Z,29.67
2019-01-22T05:49:16.329Z,36.17
2019-01-22T05:51:51.279Z,29.72
2019-01-22T05:54:41.305Z,29.42
2019-01-22T05:57:13.062Z,21.05
2019-01-22T06:00:15.623Z,23.62
2019-01-22T06:02:48.071Z,26.55
2019-01-22T06:05:32.504Z,37.23
2019-01-22T06:08:07.540Z,32.25
2019-01-22T06:10:57.540Z,27.37
2019-01-22T06:13:44.271Z,35.20
2019-01-22T06:16:23.296Z,35.28
2019-01-22T06:18:58.420Z,29.15
2019-01-22T06:21:51.493Z,19.48
2019-01-22T06:24:44.198Z,24.18
2019-01-22T06:27:16.078Z,24.43
2019-01-22T06:29:54.393Z,18.25
2019-01-22T06:32:35.367Z,19.85
2019-01-22T06:35:27.477Z,17.87
2019-01-22T06:38:11.591Z,16.48
2019-01-22T06:41:02.144Z,17.12
2019-01-22T06:43:37.590Z,15.80
2019-01-22T06:46:12.911Z,12.95
2019-01-22T06:48:50.924Z,14.90
2019-01-22T06:51:27.219Z,15.65
2019-01-22T06:54:03.266Z,15.45
2019-01-22T06:56:41.575Z,15.00
2019-01-22T06:59:31.562Z,15.28
2019-01-22T07:02:06.470Z,14.13
2019-01-22T07:04:56.471Z,14.58
2019-01-22T07:07:31.146Z,15.25
2019-01-22T07:10:13.057Z,16.20
2019-01-22T07:13:00.791Z,16.57
2019-01-22T07:15:55.545Z,14.93
2019-01-22T07:18:30.065Z,13.65
2019-01-22T07:21:36.163Z,12.63
2019-01-22T07:24:14.685Z,13.35
2019-01-22T07:26:47.067Z,14.05
2019-01-22T07:29:25.320Z,14.85
2019-01-22T07:32:04.926Z,13.88
2019-01-22T07:34:40.168Z,14.45
2019-01-22T07:37:30.782Z,14.50
2019-01-22T07:40:02.870Z,11.45
2019-01-22T07:42:56.368Z,14.35
2019-01-22T07:45:46.029Z,14.07
2019-01-22T07:48:17.897Z,16.05
2019-01-22T07:50:58.875Z,14.15
2019-01-22T07:53:37.640Z,15.72
2019-01-22T07:56:28.115Z,15.58
2019-01-22T07:59:15.217Z,17.62
2019-01-22T08:02:06.271Z,13.90
2019-01-22T08:05:16.272Z,14.28
2019-01-22T08:08:13.852Z,14.65
2019-01-22T08:11:08.859Z,12.75
2019-01-22T08:13:44.417Z,14.43
2019-01-22T08:16:43.686Z,18.25
2019-01-22T08:19:21.912Z,13.90
2019-01-22T08:22:27.885Z,14.75
2019-01-22T08:25:00.792Z,9.80
2019-01-22T08:27:35.712Z,11.97
2019-01-22T08:30:14.090Z,13.85
2019-01-22T08:33:00.952Z,11.60
2019-01-22T08:35:39.008Z,13.20
2019-01-22T08:38:19.585Z,12.75
2019-01-22T08:41:03.587Z,12.55
2019-01-22T08:43:47.398Z,13.93
2019-01-22T08:46:19.399Z,10.35
2019-01-22T08:49:03.785Z,11.45
2019-01-22T08:51:48.441Z,10.15
2019-01-22T08:54:26.282Z,11.93
2019-01-22T08:57:19.607Z,11.45
2019-01-22T08:59:57.587Z,12.68
2019-01-22T09:02:45.784Z,12.35
2019-01-22T09:05:27.826Z,14.55
2019-01-22T09:08:03.494Z,11.95
2019-01-22T09:10:51.335Z,12.68
2019-01-22T09:13:35.170Z,10.95
2019-01-22T09:16:13.270Z,12.28
2019-01-22T09:19:03.039Z,15.65
2019-01-22T09:21:46.934Z,14.90
2019-01-22T09:24:33.642Z,14.23
2019-01-22T09:27:23.776Z,13.62
2019-01-22T09:30:12.647Z,9.45
2019-01-22T09:32:51.175Z,10.05
2019-01-22T09:35:32.475Z,10.48
2019-01-22T09:38:02.248Z,12.30
2019-01-22T09:40:31.354Z,12.25
2019-01-22T09:43:00.804Z,12.50
2019-01-22T09:45:30.870Z,12.60
2019-01-22T09:47:59.989Z,12.13
2019-01-22T09:50:29.348Z,11.40
2019-01-22T09:52:58.624Z,10.08
2019-01-22T09:55:30.351Z,12.00
2019-01-22T09:57:59.094Z,11.22
2019-01-22T10:00:30.242Z,12.13
2019-01-22T10:02:59.497Z,12.28
2019-01-22T10:05:29.002Z,10.80
2019-01-22T10:07:58.591Z,10.28
2019-01-22T10:10:27.671Z,11.18
2019-01-22T10:12:57.054Z,12.00
2019-01-22T10:15:26.420Z,13.20
2019-01-22T10:17:55.531Z,13.45
2019-01-22T10:20:25.058Z,13.70
2019-01-22T10:22:54.539Z,15.45
2019-01-22T10:25:29.452Z,15.53
2019-01-22T10:27:54.804Z,18.50
2019-01-22T10:30:25.341Z,17.92
2019-01-22T10:32:54.596Z,16.05
2019-01-22T10:35:23.850Z,13.28
2019-01-22T10:37:53.278Z,12.85
2019-01-22T10:40:24.270Z,13.88
2019-01-22T10:42:53.031Z,14.98
2019-01-22T10:45:22.802Z,11.63
2019-01-22T10:47:51.536Z,13.55
2019-01-22T10:50:23.492Z,10.88
2019-01-22T10:52:52.662Z,12.78
2019-01-22T10:55:22.132Z,17.15
2019-01-22T10:57:52.405Z,17.20
2019-01-22T11:00:29.604Z,15.20
2019-01-22T11:02:59.080Z,10.50
2019-01-22T11:05:34.090Z,9.70
2019-01-22T11:08:03.271Z,8.80
2019-01-22T11:10:32.348Z,9.75
2019-01-22T11:13:01.692Z,10.53
2019-01-22T11:15:30.874Z,10.20
2019-01-22T11:18:00.353Z,8.75
2019-01-22T11:20:30.575Z,9.65
2019-01-22T11:23:00.362Z,11.35
2019-01-22T11:25:31.271Z,8.43
2019-01-22T11:28:00.346Z,11.00
2019-01-22T11:30:30.302Z,7.80
2019-01-22T11:32:59.891Z,7.80
2019-01-22T11:35:29.060Z,6.37
2019-01-22T11:37:58.930Z,9.00
2019-01-22T11:40:30.343Z,8.20
2019-01-22T11:42:59.535Z,6.83
2019-01-22T11:45:28.810Z,7.80
2019-01-22T11:47:59.033Z,7.28
2019-01-22T11:50:28.245Z,6.95
2019-01-22T11:52:57.915Z,6.95
2019-01-22T11:55:26.886Z,7.10
2019-01-22T11:57:55.923Z,7.17
2019-01-22T12:00:32.103Z,7.12
2019-01-22T12:03:01.405Z,7.12
2019-01-22T12:05:30.455Z,6.42
2019-01-22T12:08:00.589Z,6.50
2019-01-22T12:10:29.440Z,9.40
2019-01-22T12:12:58.483Z,6.35
2019-01-22T12:15:27.121Z,7.00
2019-01-22T12:17:55.868Z,8.35
2019-01-22T12:20:36.411Z,8.90
2019-01-22T12:23:05.748Z,7.50
2019-01-22T12:25:35.005Z,6.40
2019-01-22T12:28:04.322Z,7.15
2019-01-22T12:30:35.720Z,7.00
2019-01-22T12:33:05.441Z,6.28
2019-01-22T12:35:34.961Z,6.58
2019-01-22T12:38:04.378Z,6.00
2019-01-22T12:40:34.365Z,7.42
2019-01-22T12:43:04.038Z,8.45
2019-01-22T12:45:35.519Z,8.70
2019-01-22T12:48:05.238Z,7.40
2019-01-22T12:50:34.427Z,9.18
2019-01-22T12:53:03.898Z,7.92
2019-01-22T12:55:33.512Z,8.03
2019-01-22T12:58:02.130Z,7.00
2019-01-22T13:00:33.879Z,6.30
2019-01-22T13:03:02.533Z,6.35
2019-01-22T13:05:46.582Z,6.05
2019-01-22T13:08:15.821Z,7.20
2019-01-22T13:10:45.854Z,6.70
2019-01-22T13:13:14.860Z,7.67
2019-01-22T13:15:44.010Z,7.50
2019-01-22T13:18:13.122Z,8.48
2019-01-22T13:20:42.737Z,10.82
2019-01-22T13:23:12.085Z,12.05
2019-01-22T13:25:41.334Z,19.23
2019-01-22T13:28:10.863Z,15.63
2019-01-22T13:30:40.942Z,15.50
2019-01-22T13:33:10.662Z,13.80
2019-01-22T13:35:39.763Z,16.87
2019-01-22T13:38:08.957Z,22.82
2019-01-22T13:40:37.697Z,17.20
2019-01-22T13:43:06.837Z,10.53
2019-01-22T13:45:37.560Z,8.45
2019-01-22T13:48:09.499Z,7.62
2019-01-22T13:50:38.730Z,8.55
2019-01-22T13:53:08.906Z,6.78
2019-01-22T13:55:39.276Z,7.60
2019-01-22T13:58:08.812Z,6.58
2019-01-22T14:00:37.923Z,7.15
2019-01-22T14:03:07.724Z,6.28
2019-01-22T14:05:37.871Z,9.88
2019-01-22T14:08:07.302Z,6.37
2019-01-22T14:10:36.823Z,9.93
2019-01-22T14:13:06.080Z,7.87
2019-01-22T14:15:37.519Z,7.85
2019-01-22T14:18:07.084Z,7.67
2019-01-22T14:20:36.560Z,6.47
2019-01-22T14:23:05.109Z,8.50
2019-01-22T14:25:33.759Z,7.47
2019-01-22T14:28:02.291Z,7.33
2019-01-22T14:30:32.964Z,4.55
2019-01-22T14:33:02.325Z,5.60
2019-01-22T14:35:31.301Z,5.10
2019-01-22T14:38:00.664Z,5.17
2019-01-22T14:40:29.977Z,5.78
2019-01-22T14:42:59.519Z,5.12
2019-01-22T14:45:28.906Z,5.53
2019-01-22T14:47:57.945Z,5.05
2019-01-22T14:50:29.257Z,3.90
2019-01-22T14:52:58.626Z,5.25
2019-01-22T14:55:27.934Z,4.37
2019-01-22T14:57:57.092Z,4.47
2019-01-22T15:00:29.631Z,4.33
2019-01-22T15:02:59.646Z,4.72
2019-01-22T15:05:28.727Z,4.92
2019-01-22T15:07:58.870Z,6.10
2019-01-22T15:10:27.945Z,4.55
2019-01-22T15:12:58.588Z,4.53
2019-01-22T15:15:27.399Z,6.85
2019-01-22T15:17:56.653Z,13.13
2019-01-22T15:20:26.875Z,13.62
2019-01-22T15:22:56.281Z,11.97
2019-01-22T15:25:25.848Z,13.15
2019-01-22T15:27:55.070Z,9.58
2019-01-22T15:30:26.244Z,8.05
2019-01-22T15:32:56.225Z,10.45
2019-01-22T15:35:25.471Z,10.95
2019-01-22T15:37:54.477Z,8.70
2019-01-22T15:40:26.108Z,9.43
2019-01-22T15:42:55.330Z,8.68
2019-01-22T15:45:25.044Z,6.05
2019-01-22T15:47:54.360Z,9.30
2019-01-22T15:50:24.208Z,13.65
2019-01-22T15:52:53.135Z,6.87
2019-01-22T15:55:24.490Z,6.50
2019-01-22T15:57:53.669Z,15.65
2019-01-22T16:00:26.904Z,11.48
2019-01-22T16:02:55.710Z,8.13
2019-01-22T16:05:24.738Z,6.30
2019-01-22T16:07:54.083Z,6.65
2019-01-22T16:10:23.543Z,15.43
2019-01-22T16:12:52.861Z,17.40
2019-01-22T16:15:23.295Z,18.35
2019-01-22T16:17:53.174Z,6.60
2019-01-22T16:20:24.700Z,9.80
2019-01-22T16:22:54.024Z,7.95
2019-01-22T16:25:23.294Z,6.97
2019-01-22T16:27:52.417Z,7.10
2019-01-22T16:30:24.159Z,5.83
2019-01-22T16:32:53.272Z,5.90
2019-01-22T16:35:23.413Z,5.08
2019-01-22T16:37:52.630Z,5.17
2019-01-22T16:40:21.910Z,5.78
2019-01-22T16:42:51.295Z,6.37
2019-01-22T16:45:28.034Z,6.50
2019-01-22T16:47:57.419Z,6.55
2019-01-22T16:50:27.479Z,6.65
2019-01-22T16:52:56.799Z,6.20
2019-01-22T16:55:31.334Z,6.53
2019-01-22T16:58:00.710Z,7.05
2019-01-22T17:00:31.518Z,6.33
2019-01-22T17:03:01.076Z,6.92
2019-01-22T17:05:30.204Z,6.55
2019-01-22T17:07:59.556Z,6.35
2019-01-22T17:10:28.865Z,8.30
2019-01-22T17:12:59.191Z,6.50
2019-01-22T17:15:28.486Z,5.97
2019-01-22T17:17:57.913Z,5.28
2019-01-22T17:20:35.072Z,5.30
2019-01-22T17:23:04.645Z,5.33
2019-01-22T17:25:33.493Z,4.60
2019-01-22T17:28:02.943Z,4.25
2019-01-22T17:30:32.067Z,4.22
2019-01-22T17:33:05.296Z,4.55
2019-01-22T17:35:35.752Z,4.67
2019-01-22T17:38:05.094Z,3.80
2019-01-22T17:40:34.605Z,4.40
2019-01-22T17:43:03.732Z,5.42
2019-01-22T17:45:32.845Z,5.65
2019-01-22T17:48:02.250Z,5.28
2019-01-22T17:50:31.688Z,5.08
2019-01-22T17:53:07.339Z,5.30
2019-01-22T17:55:32.730Z,5.03
2019-01-22T17:58:02.824Z,5.75
2019-01-22T18:00:33.855Z,5.25
2019-01-22T18:03:02.980Z,4.53
2019-01-22T18:05:32.553Z,3.77
2019-01-22T18:08:01.999Z,2.92
2019-01-22T18:10:30.743Z,2.60
2019-01-22T18:13:00.290Z,3.00
2019-01-22T18:15:30.578Z,2.60
2019-01-22T18:17:59.599Z,2.35
2019-01-22T18:20:29.223Z,3.05
2019-01-22T18:22:58.629Z,2.45
2019-01-22T18:25:27.790Z,2.20
2019-01-22T18:27:57.102Z,2.10
2019-01-22T18:30:26.903Z,3.37
2019-01-22T18:32:55.996Z,2.83
2019-01-22T18:35:38.147Z,2.22
2019-01-22T18:38:07.919Z,2.70
2019-01-22T18:40:37.591Z,3.02
2019-01-22T18:43:07.051Z,3.30
2019-01-22T18:45:36.546Z,3.98
2019-01-22T18:48:06.222Z,4.08
2019-01-22T18:50:35.892Z,4.87
2019-01-22T18:53:05.663Z,4.87
2019-01-22T18:55:34.950Z,4.00
2019-01-22T18:58:04.298Z,4.08
2019-01-22T19:00:33.534Z,3.92
2019-01-22T19:03:02.762Z,4.00
2019-01-22T19:05:31.939Z,4.17
2019-01-22T19:08:01.370Z,4.22
2019-01-22T19:10:30.673Z,3.80
2019-01-22T19:13:00.427Z,3.80
2019-01-22T19:15:29.664Z,3.90
2019-01-22T19:17:59.358Z,3.92
2019-01-22T19:20:28.872Z,5.20
2019-01-22T19:22:57.958Z,5.53
2019-01-22T19:25:30.434Z,5.50
2019-01-22T19:27:59.653Z,5.25
2019-01-22T19:30:30.461Z,7.08
2019-01-22T19:32:59.232Z,7.60
2019-01-22T19:35:28.033Z,5.37
2019-01-22T19:37:57.484Z,6.40
2019-01-22T19:40:26.384Z,4.20
2019-01-22T19:42:55.054Z,4.50
2019-01-22T19:45:26.841Z,4.55
2019-01-22T19:47:56.220Z,5.22
2019-01-22T19:50:25.783Z,4.60
2019-01-22T19:52:54.996Z,4.70
2019-01-22T19:55:24.525Z,4.80
2019-01-22T19:57:53.778Z,5.70
2019-01-22T20:00:25.181Z,6.80
2019-01-22T20:02:54.578Z,6.95
2019-01-22T20:05:24.123Z,7.72
2019-01-22T20:07:53.335Z,6.35
2019-01-22T20:10:22.661Z,5.47
2019-01-22T20:12:51.924Z,6.40
2019-01-22T20:15:22.885Z,6.15
2019-01-22T20:17:52.310Z,5.92
2019-01-22T20:20:22.088Z,8.50
2019-01-22T20:22:51.471Z,6.15
2019-01-22T20:25:20.545Z,5.67
2019-01-22T20:27:49.887Z,6.87
2019-01-22T20:30:25.566Z,6.22
2019-01-22T20:32:54.704Z,6.35
2019-01-22T20:35:25.089Z,5.90
2019-01-22T20:37:54.725Z,6.65
2019-01-22T20:40:24.168Z,6.80
2019-01-22T20:42:53.685Z,5.37
2019-01-22T20:45:24.999Z,7.95
2019-01-22T20:47:54.426Z,6.95
2019-01-22T20:50:25.112Z,10.13
2019-01-22T20:52:54.499Z,29.30
2019-01-22T20:55:24.247Z,11.53
2019-01-22T20:57:55.023Z,13.28
2019-01-22T21:00:26.036Z,11.90
2019-01-22T21:02:56.337Z,8.78
2019-01-22T21:05:29.667Z,10.10
2019-01-22T21:07:58.823Z,7.78
2019-01-22T21:10:32.230Z,5.78
2019-01-22T21:13:01.576Z,4.33
2019-01-22T21:15:30.848Z,10.25
2019-01-22T21:18:00.353Z,10.98
2019-01-22T21:20:30.568Z,7.60
2019-01-22T21:23:00.044Z,8.60
2019-01-22T21:25:29.081Z,6.40
2019-01-22T21:28:01.941Z,10.90
2019-01-22T21:30:34.216Z,7.00
2019-01-22T21:33:03.633Z,4.05
2019-01-22T21:35:32.669Z,6.33
2019-01-22T21:38:02.785Z,8.03
2019-01-22T21:40:31.719Z,4.75
2019-01-22T21:43:01.161Z,4.58
2019-01-22T21:45:31.292Z,4.58
2019-01-22T21:48:00.099Z,6.55
2019-01-22T21:50:28.843Z,4.90
2019-01-22T21:52:57.500Z,3.50
2019-01-22T21:55:26.193Z,3.85
2019-01-22T21:57:55.711Z,3.33
2019-01-22T22:00:28.290Z,2.70
2019-01-22T22:02:57.839Z,2.95
2019-01-22T22:05:28.911Z,2.87
2019-01-22T22:07:58.420Z,3.70
2019-01-22T22:10:28.842Z,4.55
2019-01-22T22:12:58.041Z,2.77
2019-01-22T22:15:27.640Z,3.10
2019-01-22T22:17:56.964Z,4.85
2019-01-22T22:20:26.258Z,3.80
2019-01-22T22:22:55.594Z,4.05
2019-01-22T22:25:25.139Z,5.42
2019-01-22T22:27:54.349Z,4.97
2019-01-22T22:30:31.596Z,5.10
2019-01-22T22:33:00.856Z,7.05
2019-01-22T22:35:29.995Z,7.08
2019-01-22T22:37:59.341Z,7.37
2019-01-22T22:40:28.128Z,5.00
2019-01-22T22:42:57.689Z,4.37
2019-01-22T22:45:27.803Z,5.20
2019-01-22T22:47:57.454Z,4.60
2019-01-22T22:50:32.946Z,4.05
2019-01-22T22:53:02.068Z,1.60
2019-01-22T22:55:31.157Z,2.40
2019-01-22T22:58:00.619Z,3.22
2019-01-22T23:00:36.670Z,2.05
2019-01-22T23:03:06.648Z,2.77
2019-01-22T23:05:36.406Z,1.70
2019-01-22T23:08:05.750Z,1.75
2019-01-22T23:10:35.595Z,2.20
2019-01-22T23:13:05.025Z,1.85
2019-01-22T23:15:33.777Z,2.05
2019-01-22T23:18:02.527Z,2.00
2019-01-22T23:20:32.311Z,2.00
2019-01-22T23:23:01.564Z,1.82
2019-01-22T23:25:31.232Z,1.60
2019-01-22T23:28:00.708Z,1.50
2019-01-22T23:30:29.715Z,1.60
2019-01-22T23:32:58.996Z,1.65
2019-01-22T23:35:28.246Z,1.87
2019-01-22T23:37:57.361Z,1.30
2019-01-22T23:40:26.459Z,1.40
2019-01-22T23:42:55.542Z,1.65
2019-01-22T23:45:24.650Z,1.70
2019-01-22T23:47:54.016Z,1.30
2019-01-22T23:50:23.244Z,1.25
2019-01-22T23:52:52.572Z,1.30
2019-01-22T23:55:21.927Z,1.32
2019-01-22T23:57:50.547Z,1.42
